Aktualne dane pomiarowe

Uwaga, wersja testowa! Automatyczne pobieranie danych za pomocą narzędzi lub skryptów to umożliwiających jest zabronione.

Dane meteo z obszaru Polski uzyskane na podstawie depesz SYNOP pobieranych co godzinę z NWS. Najedź myszką na symbol przedstawiony w tabeli, aby uzyskać informacje co do jego znaczenia. Prosimy pamiętać, że to testowa wersja strony, która jeszcze nie jest ukończona. Stworzono również jest krótki FAQ dotyczący korzystania z tej podstrony Anomalie temperatury w chwili obecnej odniesione są do okresu referencyjnego 1951-2016. Okres ten będzie później zmieniony na 1981-2010. Kliknij ikonę aby pobrać plik CSV. Kliknij ikonę aby wygenerować mapę synoptyczną dla danego terminu.

Wybierz Datę:    

        

Tarnów (12575)

Dane terminowe dla wybranej stacji. Kliknij datę, aby otrzymać dane z tego terminu dla wszystkich stacji.

TemperaturaZachmurzenieWiatrCiśnienieOpadyPogoda
 Data t td wb tx tn tg rh  Nt Nl Cl Cm Ch ws wd g1 g2 wx mslp ppp ch 24h 12h t ww ww w1 w2  
2019-08-08 23:00:00 15.1 13.8 14.2--- 9210.0--0---01014.4 989.6 0.9---wx-----
2019-08-08 22:00:00 15.3 13.8 14.2--- 9110.0--0---01014.2 989.4 0.9---wx-----
2019-08-08 21:00:00 15.9 13.9 14.5--- 8810.0--0---01013.8 989.1 0.9---wx-----
2019-08-08 20:00:00 16.6 14.1 14.9--- 8511.0--0----1013.4 988.7 0.6---------
2019-08-08 19:00:00 17.9 14.4 15.5--- 8012.0--0---01013.1 988.5 0.5---------
2019-08-08 18:00:00 20.6 14.5 16.6 25.7 18.3- 6821.0--0--801012.5 988.2 0.0- 0.012------
2019-08-08 17:00:00 23.5 12.5 16.7--- 5026.0--1wx--11012.2 988.1 -0.1---------
2019-08-08 16:00:00 24.5 12.8 17.3--- 4824.0--1wx---1012.0 988.0 -0.1---------
2019-08-08 15:00:00 25.2 11.4 16.9--- 4222.0--2wx-821012.1 988.2 0.0---------
2019-08-08 14:00:00 25.5 14.0 18.3--- 4921.0--2wx--21012.1 988.2 0.1---------
2019-08-08 13:00:00 24.6 13.5 17.7--- 5021.0--2wx-821012.1 988.1 0.3---------
2019-08-08 12:00:00 24.3 14.1 17.8--- 5323.0--2wx-721012.2 988.2 0.5- 0.06------
2019-08-08 11:00:00 23.7 16.0 18.6--- 6220.0--2wx-721012.2 988.1 0.7---------
2019-08-08 10:00:00 22.7 16.3 18.4--- 6717.0--3wx-731011.9 987.8 1.3---------
2019-08-08 09:00:00 20.6 16.8 18.0--- 7915.0--2wx-721012.0 987.7 1.7---------
2019-08-08 08:00:00 19.3 17.1 17.7--- 8714.0--1wx-711011.8 987.4 2.7---------
2019-08-08 07:00:00 18.6 17.1 17.5--- 9113.0--2wx-721010.9 986.5 2.4---------
2019-08-08 06:00:00 18.3 17.5 17.7 20.9 18.1 18 9511.0--2wx-721010.5 986.0 2.6 11.7 10.012----- 7.3
2019-08-08 05:00:00 18.2 17.7 17.8--- 9717.0--2wx---1009.1 984.7 1.7---wx-----
2019-08-08 04:00:00 18.3 18.0 18.1--- 985.0--2wx---1008.5 984.1 1.5---wx-----
2019-08-08 03:00:00 18.3 17.7 17.9--- 9612.0--1wx--11007.8 983.4 0.8---wx-----
2019-08-08 02:00:00 19.1 18.6 18.7--- 975.0--1wx--11007.3 983.0 0.9---wx-----
2019-08-08 01:00:00 19.6 18.4 18.7--- 937.0--2wx--21006.9 982.6 0.4---wx-----
2019-08-08 00:00:00 19.4 17.9 18.3--- 9113.0--1wx--11006.9 982.6 0.0- 0.16------
2019-08-07 23:00:00 19.0 17.5 17.9--- 9113.0--1wx--11006.4 982.1 -0.5---------
2019-08-07 22:00:00 19.2 17.5 18.0--- 9011.0--0---01006.5 982.2 -1.0---------
2019-08-07 21:00:00 20.5 18.1 18.8--- 8617.0--1wx--11006.8 982.6 -0.9---------
2019-08-07 20:00:00 20.3 18.6 19.1--- 9016.0--2wx---1006.8 982.6 -1.5---------
2019-08-07 19:00:00 20.3 18.8 19.2--- 9115.0--1wx---1007.4 983.2 -1.3---------
2019-08-07 18:00:00 20.9 19.4 19.8 29.7 20.8- 9114.0--1wx-811007.7 983.5 -1.3- 2.012wx-----
2019-08-07 17:00:00 21.5 20.0 20.4--- 914.0--1wx--11008.2 984.1 -1.1---wx-----
2019-08-07 16:00:00 21.8 19.5 20.1--- 8711.0--1wx--11008.6 984.5 -0.5---wx-----
2019-08-07 15:00:00 22.3 19.5 20.3--- 8420.0--1wx-811008.9 984.8 0.2---wx-----
2019-08-07 14:00:00 21.0 18.9 19.5--- 889.0--1wx---1009.4 985.2 1.0---wx-----
2019-08-07 13:00:00 21.6 18.0 19.1--- 8020.0--3wx-831009.2 985.0 -0.2---wx-----
2019-08-07 12:00:00 24.4 16.9 19.4--- 6322.0--2wx-1421008.5 984.6 -1.0--6wx-----
2019-08-07 11:00:00 29.5 17.3 21.5--- 4827.0--3wx--31007.7 984.2 -1.6---------
2019-08-07 10:00:00 29.4 16.9 21.3--- 4721.0--3wx--31008.7 985.2 -0.7---------
2019-08-07 09:00:00 27.9 17.1 20.8--- 5222.0--3wx---1009.3 985.6 -0.3---------
2019-08-07 08:00:00 26.8 17.3 20.5--- 5623.0--3wx--31009.5 985.8 -0.2---------
2019-08-07 07:00:00 25.1 17.3 19.9--- 6223.0--3wx--31009.8 985.9 -0.1---------
2019-08-07 06:00:00 23.8 16.8 19.1 23.8 17.0 16 6520.0--2wx--21009.9 985.9 -0.1- 0.012----- 10.9
2019-08-07 05:00:00 21.6 17.0 18.4--- 7520.0--1wx--11010.2 986.0 -0.1---------
2019-08-07 04:00:00 17.4 15.9 16.3--- 9115.0--1wx---1010.5 986.0 -0.2---------
2019-08-07 03:00:00 17.0 15.5 15.9--- 9114.0--1wx--11010.6 986.0 0.0---------
2019-08-07 02:00:00 17.8 16.0 16.5--- 8916.0--0---01010.6 986.1 -0.2---------
2019-08-07 01:00:00 19.4 16.2 17.2--- 8220.0--1wx--11010.6 986.2 -0.2---------
2019-08-07 00:00:00 20.1 16.7 17.7--- 8121.0--1wx--11010.3 986.0 -0.5- 0.06------
1.1 ms

 

Print Friendly, PDF & Email